createdAt,value
2023-05-06T00:05:03.491Z,1292
2023-05-06T00:10:21.995Z,1282
2023-05-06T00:15:40.334Z,1281
2023-05-06T00:20:58.799Z,1294
2023-05-06T00:26:17.346Z,1291
2023-05-06T00:31:36.179Z,1284
2023-05-06T00:36:54.871Z,1286
2023-05-06T00:42:13.205Z,1277
2023-05-06T00:47:31.695Z,1262
2023-05-06T00:52:49.775Z,1257
2023-05-06T00:58:08.003Z,1244
2023-05-06T01:03:26.791Z,1265
2023-05-06T01:08:45.327Z,1247
2023-05-06T01:14:03.798Z,1227
2023-05-06T01:19:22.442Z,1208
2023-05-06T01:24:40.746Z,1190
2023-05-06T01:29:58.731Z,1195
2023-05-06T01:35:16.977Z,1174
2023-05-06T01:40:35.020Z,1185
2023-05-06T01:45:53.628Z,1182
2023-05-06T01:51:11.986Z,1171
2023-05-06T01:56:29.971Z,1159
2023-05-06T02:01:48.233Z,1136
2023-05-06T02:07:06.640Z,1114
2023-05-06T02:12:25.046Z,1112
2023-05-06T02:17:43.462Z,1094
2023-05-06T02:23:01.933Z,1107
2023-05-06T02:28:20.397Z,1106
2023-05-06T02:33:38.831Z,1091
2023-05-06T02:38:57.634Z,1097
2023-05-06T02:44:16.050Z,1082
2023-05-06T02:49:34.604Z,1099
2023-05-06T02:54:53.025Z,1085
2023-05-06T03:00:11.278Z,1097
2023-05-06T03:05:29.895Z,1100
2023-05-06T03:10:48.394Z,1113
2023-05-06T03:16:06.760Z,1091
2023-05-06T03:21:25.288Z,1112
2023-05-06T03:26:43.813Z,1093
2023-05-06T03:32:02.085Z,1081
2023-05-06T03:37:20.557Z,1088
2023-05-06T03:42:38.751Z,1082
2023-05-06T03:47:58.396Z,1068
2023-05-06T03:53:17.061Z,1080
2023-05-06T03:58:35.619Z,1070
2023-05-06T04:03:54.002Z,1076
2023-05-06T04:09:12.720Z,1085
2023-05-06T04:14:31.328Z,1077
2023-05-06T04:19:50.336Z,1071
2023-05-06T04:25:09.239Z,1069
2023-05-06T04:30:28.387Z,1067
2023-05-06T04:35:46.511Z,1072
2023-05-06T04:41:04.824Z,1059
2023-05-06T04:46:26.303Z,1066
2023-05-06T04:51:44.274Z,1056
2023-05-06T04:57:02.549Z,1060
2023-05-06T05:02:22.362Z,1071
2023-05-06T05:07:40.636Z,1069
2023-05-06T05:13:03.120Z,1067
2023-05-06T05:18:21.625Z,1053
2023-05-06T05:23:40.239Z,1052
2023-05-06T05:28:59.721Z,1041
2023-05-06T05:34:18.982Z,1029
2023-05-06T05:39:37.534Z,1024
2023-05-06T05:44:55.629Z,1015
2023-05-06T05:50:13.809Z,1008
2023-05-06T05:55:32.276Z,1007
2023-05-06T06:00:50.445Z,1009
2023-05-06T06:06:09.143Z,1024
2023-05-06T06:11:27.347Z,1030
2023-05-06T06:16:46.132Z,1024
2023-05-06T06:22:05.236Z,1044
2023-05-06T06:27:23.664Z,1041
2023-05-06T06:32:42.344Z,1057
2023-05-06T06:38:00.891Z,1087
2023-05-06T06:43:19.454Z,1082
2023-05-06T06:48:38.099Z,1094
2023-05-06T06:53:56.642Z,1074
2023-05-06T06:59:15.252Z,1073
2023-05-06T07:04:33.975Z,1120
2023-05-06T07:09:52.940Z,862
2023-05-06T07:15:11.553Z,808
2023-05-06T07:20:30.609Z,708
2023-05-06T07:25:49.049Z,613
2023-05-06T07:31:07.335Z,635
2023-05-06T07:36:26.133Z,653
2023-05-06T07:41:44.586Z,669
2023-05-06T07:46:47.390Z,672
2023-05-06T07:52:05.952Z,676
2023-05-06T07:57:24.664Z,687
2023-05-06T08:02:43.240Z,651
2023-05-06T08:08:02.032Z,672
2023-05-06T08:13:20.734Z,657
2023-05-06T08:18:39.488Z,690
2023-05-06T08:23:58.014Z,625
2023-05-06T08:29:16.890Z,734
2023-05-06T08:34:35.437Z,708
2023-05-06T08:39:54.248Z,702
2023-05-06T08:45:18.029Z,700
2023-05-06T08:50:36.384Z,711
2023-05-06T08:55:55.166Z,714
2023-05-06T09:01:13.774Z,724
2023-05-06T09:06:32.306Z,721
2023-05-06T09:11:50.564Z,710
2023-05-06T09:17:09.209Z,706
2023-05-06T09:22:27.733Z,680
2023-05-06T09:27:45.781Z,626
2023-05-06T09:33:04.447Z,603
2023-05-06T09:38:23.135Z,595
2023-05-06T09:43:41.708Z,590
2023-05-06T09:49:00.579Z,576
2023-05-06T09:54:18.570Z,572
2023-05-06T09:59:36.879Z,572
2023-05-06T10:04:55.248Z,566
2023-05-06T10:10:14.550Z,559
2023-05-06T10:15:17.135Z,554
2023-05-06T10:20:35.790Z,542
2023-05-06T10:25:54.181Z,538
2023-05-06T10:30:56.885Z,514
2023-05-06T10:36:15.425Z,534
2023-05-06T10:41:33.796Z,561
2023-05-06T10:46:52.058Z,572
2023-05-06T10:52:10.426Z,575
2023-05-06T10:57:28.948Z,564
2023-05-06T11:02:47.962Z,551
2023-05-06T11:08:06.376Z,539
2023-05-06T11:13:25.036Z,532
2023-05-06T11:18:28.162Z,517
2023-05-06T11:23:46.895Z,511
2023-05-06T11:29:05.454Z,517
2023-05-06T11:34:23.817Z,523
2023-05-06T11:39:51.149Z,538
2023-05-06T11:45:09.530Z,557
2023-05-06T11:50:27.710Z,574
2023-05-06T11:55:46.330Z,597
2023-05-06T12:01:04.920Z,616
2023-05-06T12:06:24.585Z,632
2023-05-06T12:11:44.926Z,661
2023-05-06T12:17:03.645Z,713
2023-05-06T12:22:22.193Z,797
2023-05-06T12:27:40.592Z,871
2023-05-06T12:32:59.308Z,921
2023-05-06T12:38:17.788Z,957
2023-05-06T12:43:37.179Z,987
2023-05-06T12:48:55.863Z,1002
2023-05-06T12:54:14.507Z,1006
2023-05-06T12:59:33.158Z,1022
2023-05-06T13:04:51.938Z,1037
2023-05-06T13:10:10.786Z,1033
2023-05-06T13:15:30.866Z,1017
2023-05-06T13:20:49.308Z,1005
2023-05-06T13:26:07.723Z,994
2023-05-06T13:31:26.053Z,977
2023-05-06T13:36:44.454Z,972
2023-05-06T13:42:03.474Z,969
2023-05-06T13:47:27.573Z,963
2023-05-06T13:52:45.648Z,963
2023-05-06T13:57:49.076Z,959
2023-05-06T14:03:07.593Z,958
2023-05-06T14:08:26.501Z,958
2023-05-06T14:13:30.254Z,955
2023-05-06T14:18:48.646Z,957
2023-05-06T14:24:07.890Z,947
2023-05-06T14:29:26.362Z,938
2023-05-06T14:34:45.156Z,930
2023-05-06T14:40:03.658Z,931
2023-05-06T14:45:22.556Z,934
2023-05-06T14:50:41.118Z,931
2023-05-06T14:55:59.279Z,930
2023-05-06T15:01:17.786Z,933
2023-05-06T15:06:36.708Z,1015
2023-05-06T15:11:55.015Z,1038
2023-05-06T15:17:13.426Z,1048
2023-05-06T15:22:31.827Z,1053
2023-05-06T15:27:50.333Z,1047
2023-05-06T15:33:09.347Z,1039
2023-05-06T15:38:27.498Z,1030
2023-05-06T15:43:46.031Z,1026
2023-05-06T15:55:13.415Z,1014
2023-05-06T16:00:32.022Z,1011
2023-05-06T16:05:50.439Z,1008
2023-05-06T16:11:09.161Z,1003
2023-05-06T16:16:27.532Z,996
2023-05-06T16:21:45.651Z,980
2023-05-06T16:27:04.059Z,961
2023-05-06T16:32:22.314Z,950
2023-05-06T16:37:40.968Z,929
2023-05-06T16:42:59.252Z,891
2023-05-06T16:48:17.797Z,867
2023-05-06T16:53:36.775Z,858
2023-05-06T16:58:55.172Z,844
2023-05-06T17:04:13.540Z,837
2023-05-06T17:09:34.976Z,827
2023-05-06T17:14:54.239Z,824
2023-05-06T17:20:13.035Z,812
2023-05-06T17:25:31.585Z,804
2023-05-06T17:30:50.160Z,803
2023-05-06T17:36:08.689Z,807
2023-05-06T17:41:26.937Z,813
2023-05-06T17:46:45.513Z,812
2023-05-06T17:52:04.397Z,816
2023-05-06T17:57:22.399Z,803
2023-05-06T18:02:40.930Z,791
2023-05-06T18:07:59.802Z,782
2023-05-06T18:13:18.186Z,768
2023-05-06T18:18:36.765Z,749
2023-05-06T18:23:58.784Z,738
2023-05-06T18:29:34.641Z,727
2023-05-06T18:34:52.878Z,732
2023-05-06T18:40:11.279Z,749
2023-05-06T18:45:29.539Z,763
2023-05-06T18:50:48.102Z,767
2023-05-06T18:56:06.578Z,767
2023-05-06T19:01:24.757Z,765
2023-05-06T19:06:43.511Z,766
2023-05-06T19:12:02.128Z,767
2023-05-06T19:17:20.813Z,769
2023-05-06T19:22:42.344Z,770
2023-05-06T19:28:00.700Z,774
2023-05-06T19:33:19.048Z,779
2023-05-06T19:38:37.302Z,784
2023-05-06T19:43:55.507Z,790
2023-05-06T19:49:13.786Z,803
2023-05-06T19:54:32.087Z,810
2023-05-06T19:59:50.294Z,811
2023-05-06T20:05:09.016Z,817
2023-05-06T20:10:29.385Z,832
2023-05-06T20:15:48.972Z,842
2023-05-06T20:21:07.197Z,862
2023-05-06T20:26:26.031Z,895
2023-05-06T20:31:45.748Z,916
2023-05-06T20:37:04.225Z,937
2023-05-06T20:42:22.593Z,988
2023-05-06T20:47:40.965Z,1008
2023-05-06T20:52:59.165Z,1039
2023-05-06T20:58:17.575Z,1072
2023-05-06T21:03:35.931Z,1090
2023-05-06T21:08:54.287Z,1110
2023-05-06T21:14:12.452Z,1129
2023-05-06T21:19:30.853Z,1136
2023-05-06T21:24:49.264Z,1153
2023-05-06T21:30:08.500Z,1164
2023-05-06T21:35:26.814Z,1168
2023-05-06T21:40:45.200Z,1181
2023-05-06T21:46:04.043Z,1182
2023-05-06T21:51:22.598Z,1192
2023-05-06T21:56:41.070Z,1197
2023-05-06T22:01:59.689Z,1204
2023-05-06T22:07:18.338Z,1209
2023-05-06T22:12:36.837Z,1212
2023-05-06T22:17:55.332Z,1208
2023-05-06T22:23:14.374Z,1209
2023-05-06T22:28:33.008Z,1209
2023-05-06T22:33:51.065Z,1208
2023-05-06T22:39:09.217Z,1204
2023-05-06T22:44:27.813Z,1204
2023-05-06T22:49:46.164Z,1239
2023-05-06T22:55:04.590Z,1260
2023-05-06T23:00:22.774Z,1260
2023-05-06T23:05:41.300Z,1268
2023-05-06T23:10:59.748Z,1283
2023-05-06T23:16:18.561Z,1272
2023-05-06T23:21:37.023Z,1271
2023-05-06T23:26:55.408Z,1269
2023-05-06T23:32:14.248Z,1265
2023-05-06T23:37:32.768Z,1258
2023-05-06T23:42:50.729Z,1257
2023-05-06T23:48:09.288Z,1268
2023-05-06T23:53:27.957Z,1275
2023-05-06T23:58:46.110Z,1274
